createdAt,value
2023-03-11T00:03:04.344Z,84.72
2023-03-11T00:08:04.549Z,83.31
2023-03-11T00:13:04.197Z,83.39
2023-03-11T00:18:04.111Z,82.66
2023-03-11T00:23:04.083Z,84.79
2023-03-11T00:28:04.056Z,86.38
2023-03-11T00:33:03.891Z,85.97
2023-03-11T00:38:03.794Z,85.42
2023-03-11T00:43:03.803Z,85.16
2023-03-11T00:48:03.744Z,87.74
2023-03-11T00:53:03.668Z,89.03
2023-03-11T00:58:03.628Z,87.12
2023-03-11T01:03:03.530Z,88.13
2023-03-11T01:08:03.499Z,88.71
2023-03-11T01:13:03.413Z,88.06
2023-03-11T01:18:03.315Z,86.09
2023-03-11T01:23:03.264Z,88.12
2023-03-11T01:28:03.186Z,84.74
2023-03-11T01:33:03.218Z,83.67
2023-03-11T01:38:03.128Z,85.16
2023-03-11T01:43:03.044Z,83.56
2023-03-11T01:48:02.939Z,84.97
2023-03-11T01:53:02.876Z,84.47
2023-03-11T01:58:02.768Z,83.95
2023-03-11T02:03:02.770Z,83.95
2023-03-11T02:08:02.655Z,84.99
2023-03-11T02:13:02.715Z,84.99
2023-03-11T02:18:02.555Z,82.26
2023-03-11T02:23:02.577Z,83.26
2023-03-11T02:28:02.448Z,83.71
2023-03-11T02:33:02.354Z,85.68
2023-03-11T02:38:02.280Z,82.13
2023-03-11T02:43:02.305Z,86.07
2023-03-11T02:48:02.190Z,85.58
2023-03-11T02:53:02.158Z,83.45
2023-03-11T02:58:02.031Z,85.42
2023-03-11T03:03:02.054Z,83.76
2023-03-11T03:08:01.898Z,87.43
2023-03-11T03:13:01.899Z,86.91
2023-03-11T03:18:01.813Z,86.95
2023-03-11T03:23:01.753Z,88.17
2023-03-11T03:28:01.753Z,90.14
2023-03-11T03:33:01.596Z,90.00
2023-03-11T03:38:01.557Z,92.07
2023-03-11T03:43:01.524Z,90.56
2023-03-11T03:48:02.895Z,91.16
2023-03-11T03:53:01.352Z,92.88
2023-03-11T03:58:01.290Z,91.64
2023-03-11T04:03:01.276Z,92.45
2023-03-11T04:08:01.176Z,93.72
2023-03-11T04:13:01.114Z,95.67
2023-03-11T04:18:01.034Z,96.30
2023-03-11T04:23:01.025Z,95.57
2023-03-11T04:28:00.928Z,94.43
2023-03-11T04:33:00.830Z,94.06
2023-03-11T04:38:00.757Z,95.09
2023-03-11T04:43:00.726Z,95.87
2023-03-11T04:48:00.681Z,96.76
2023-03-11T04:53:00.679Z,97.12
2023-03-11T04:58:00.485Z,97.55
2023-03-11T05:03:00.475Z,96.97
2023-03-11T05:08:00.421Z,94.31
2023-03-11T05:13:00.307Z,95.99
2023-03-11T05:18:00.264Z,92.08
2023-03-11T05:23:00.219Z,92.03
2023-03-11T05:28:00.154Z,91.27
2023-03-11T05:33:00.097Z,92.35
2023-03-11T05:38:00.092Z,90.64
2023-03-11T05:42:59.928Z,88.19
2023-03-11T05:47:59.872Z,88.19
2023-03-11T05:52:59.814Z,87.32
2023-03-11T05:57:59.833Z,86.83
2023-03-11T06:02:59.698Z,87.63
2023-03-11T06:07:59.665Z,86.94
2023-03-11T06:12:59.519Z,87.42
2023-03-11T06:17:59.694Z,86.44
2023-03-11T06:22:59.396Z,87.63
2023-03-11T06:27:59.470Z,88.15
2023-03-11T06:32:59.477Z,86.34
2023-03-11T06:37:59.227Z,85.86
2023-03-11T06:42:59.736Z,85.72
2023-03-11T06:47:59.083Z,86.17
2023-03-11T06:52:59.059Z,87.59
2023-03-11T06:57:59.014Z,84.37
2023-03-11T07:02:58.879Z,86.09
2023-03-11T07:07:58.884Z,85.30
2023-03-11T07:12:58.808Z,88.10
2023-03-11T07:17:58.718Z,84.60
2023-03-11T07:22:58.662Z,86.04
2023-03-11T07:27:58.561Z,87.72
2023-03-11T07:33:02.319Z,87.37
2023-03-11T07:37:58.626Z,81.89
2023-03-11T07:42:58.436Z,82.97
2023-03-11T07:47:59.114Z,83.55
2023-03-11T07:52:58.251Z,83.72
2023-03-11T07:57:58.165Z,82.23
2023-03-11T08:02:58.237Z,81.37
2023-03-11T08:07:58.018Z,81.24
2023-03-11T08:12:58.006Z,80.41
2023-03-11T08:17:58.002Z,82.04
2023-03-11T08:22:58.604Z,79.20
2023-03-11T08:27:57.804Z,82.15
2023-03-11T08:32:57.732Z,84.63
2023-03-11T08:37:57.673Z,85.46
2023-03-11T08:42:57.571Z,85.56
2023-03-11T08:47:57.611Z,87.06
2023-03-11T08:52:57.463Z,87.79
2023-03-11T08:57:57.418Z,87.79
2023-03-11T09:02:57.393Z,87.33
2023-03-11T09:07:57.279Z,87.02
2023-03-11T09:12:57.214Z,87.96
2023-03-11T09:17:57.139Z,87.85
2023-03-11T09:22:57.145Z,88.83
2023-03-11T09:27:57.064Z,89.76
2023-03-11T09:32:57.061Z,90.37
2023-03-11T09:37:56.962Z,92.21
2023-03-11T09:42:56.823Z,91.16
2023-03-11T09:47:56.799Z,90.64
2023-03-11T09:52:56.741Z,90.75
2023-03-11T09:57:56.669Z,90.70
2023-03-11T10:02:56.662Z,89.45
2023-03-11T10:07:56.585Z,88.10
2023-03-11T10:12:56.453Z,89.56
2023-03-11T10:17:56.382Z,87.85
2023-03-11T10:22:56.411Z,85.83
2023-03-11T10:27:56.253Z,84.03
2023-03-11T10:32:56.248Z,83.78
2023-03-11T10:37:56.119Z,82.81
2023-03-11T10:42:56.040Z,81.91
2023-03-11T10:47:56.000Z,83.08
2023-03-11T10:52:55.927Z,79.72
2023-03-11T10:57:55.904Z,79.03
2023-03-11T11:02:55.794Z,80.18
2023-03-11T11:07:55.761Z,80.32
2023-03-11T11:12:55.692Z,82.05
2023-03-11T11:17:55.627Z,83.09
2023-03-11T11:22:55.567Z,84.27
2023-03-11T11:27:55.474Z,82.78
2023-03-11T11:32:55.622Z,81.04
2023-03-11T11:37:55.368Z,80.97
2023-03-11T11:42:55.491Z,80.55
2023-03-11T11:47:55.316Z,79.30
2023-03-11T11:52:55.142Z,77.16
2023-03-11T11:57:55.076Z,77.09
2023-03-11T12:02:55.013Z,75.74
2023-03-11T12:07:55.164Z,78.68
2023-03-11T12:12:54.872Z,75.26
2023-03-11T12:17:54.886Z,76.16
2023-03-11T12:22:54.765Z,76.92
2023-03-11T12:27:54.772Z,77.86
2023-03-11T12:32:54.775Z,77.30
2023-03-11T12:37:54.577Z,75.57
2023-03-11T12:42:54.523Z,75.57
2023-03-11T12:47:54.531Z,78.00
2023-03-11T12:52:54.417Z,80.91
2023-03-11T12:57:54.342Z,81.32
2023-03-11T13:02:54.432Z,81.22
2023-03-11T13:07:54.228Z,82.22
2023-03-11T13:12:54.146Z,82.64
2023-03-11T13:17:54.083Z,81.35
2023-03-11T13:22:54.016Z,78.92
2023-03-11T13:27:53.924Z,77.44
2023-03-11T13:32:54.648Z,76.71
2023-03-11T13:37:53.934Z,77.30
2023-03-11T13:42:53.868Z,77.06
2023-03-11T13:47:53.716Z,77.40
2023-03-11T13:52:53.594Z,77.47
2023-03-11T13:57:53.568Z,78.44
2023-03-11T14:02:53.459Z,77.72
2023-03-11T14:07:53.405Z,76.16
2023-03-11T14:12:53.324Z,76.75
2023-03-11T14:17:53.255Z,74.88
2023-03-11T14:22:53.222Z,73.11
2023-03-11T14:27:53.154Z,73.11
2023-03-11T14:32:54.341Z,73.11
2023-03-11T14:37:54.293Z,73.60
2023-03-11T14:42:52.942Z,73.57
2023-03-11T14:47:53.345Z,74.32
2023-03-11T14:52:52.831Z,74.43
2023-03-11T14:57:52.772Z,74.74
2023-03-11T15:02:52.785Z,75.23
2023-03-11T15:07:52.662Z,74.32
2023-03-11T15:12:52.574Z,72.49
2023-03-11T15:17:52.543Z,74.05
2023-03-11T15:22:52.714Z,74.15
2023-03-11T15:27:52.419Z,72.28
2023-03-11T15:32:52.361Z,71.86
2023-03-11T15:37:52.263Z,72.17
2023-03-11T15:42:52.502Z,70.93
2023-03-11T15:47:52.117Z,69.37
2023-03-11T15:52:52.029Z,69.48
2023-03-11T15:57:52.217Z,71.24
2023-03-11T16:02:51.996Z,70.20
2023-03-11T16:07:52.047Z,72.17
2023-03-11T16:12:51.771Z,71.55
2023-03-11T16:17:51.725Z,72.90
2023-03-11T16:22:51.694Z,71.86
2023-03-11T16:27:51.605Z,72.94
2023-03-11T16:32:51.640Z,73.66
2023-03-11T16:37:51.555Z,73.46
2023-03-11T16:42:51.449Z,73.87
2023-03-11T16:47:51.359Z,74.08
2023-03-11T16:52:51.622Z,74.84
2023-03-11T16:57:51.404Z,75.78
2023-03-11T17:02:51.109Z,75.46
2023-03-11T17:07:51.124Z,76.54
2023-03-11T17:12:51.107Z,76.54
2023-03-11T17:17:51.008Z,77.30
2023-03-11T17:22:50.983Z,78.38
2023-03-11T17:27:50.912Z,79.46
2023-03-11T17:32:50.859Z,80.74
2023-03-11T17:37:51.009Z,81.47
2023-03-11T17:42:50.714Z,82.03
2023-03-11T17:47:50.610Z,82.14
2023-03-11T17:52:50.589Z,82.59
2023-03-11T17:57:50.446Z,82.63
2023-03-11T18:02:50.399Z,82.42
2023-03-11T18:07:50.356Z,83.57
2023-03-11T18:12:50.274Z,83.15
2023-03-11T18:17:50.161Z,82.94
2023-03-11T18:22:50.126Z,82.42
2023-03-11T18:27:50.098Z,82.87
2023-03-11T18:32:50.043Z,82.46
2023-03-11T18:37:49.925Z,82.91
2023-03-11T18:42:49.900Z,83.64
2023-03-11T18:47:49.820Z,83.95
2023-03-11T18:52:49.795Z,84.62
2023-03-11T18:57:49.731Z,85.25
2023-03-11T19:02:49.693Z,85.67
2023-03-11T19:07:49.577Z,85.56
2023-03-11T19:12:49.609Z,85.91
2023-03-11T19:18:00.662Z,87.38
2023-03-11T19:22:50.364Z,87.73
2023-03-11T19:27:49.329Z,88.26
2023-03-11T19:32:49.370Z,88.50
2023-03-11T19:37:49.196Z,90.18
2023-03-11T19:42:49.131Z,88.82
2023-03-11T19:47:49.041Z,89.80
2023-03-11T19:52:49.017Z,90.47
2023-03-11T19:57:48.925Z,91.41
2023-03-11T20:02:48.886Z,91.72
2023-03-11T20:07:48.806Z,91.83
2023-03-11T20:13:01.400Z,92.04
2023-03-11T20:17:50.811Z,91.72
2023-03-11T20:22:48.639Z,92.14
2023-03-11T20:27:48.562Z,92.46
2023-03-11T20:32:48.860Z,92.77
2023-03-11T20:37:48.485Z,92.67
2023-03-11T20:42:48.446Z,92.54
2023-03-11T20:47:48.447Z,90.72
2023-03-11T20:52:48.206Z,89.78
2023-03-11T20:57:48.255Z,89.11
2023-03-11T21:02:48.194Z,88.65
2023-03-11T21:07:48.048Z,89.32
2023-03-11T21:12:48.235Z,90.41
2023-03-11T21:17:47.906Z,91.46
2023-03-11T21:22:47.932Z,91.50
2023-03-11T21:27:47.805Z,91.96
2023-03-11T21:32:47.905Z,92.86
2023-03-11T21:37:47.738Z,93.01
2023-03-11T21:42:47.735Z,94.68
2023-03-11T21:47:47.659Z,94.89
2023-03-11T21:52:47.492Z,95.04
2023-03-11T21:57:47.380Z,95.00
2023-03-11T22:02:47.348Z,94.83
2023-03-11T22:07:47.445Z,95.46
2023-03-11T22:12:47.264Z,95.67
2023-03-11T22:17:47.471Z,96.19
2023-03-11T22:22:47.074Z,95.31
2023-03-11T22:27:47.055Z,94.37
2023-03-11T22:32:47.093Z,93.17
2023-03-11T22:37:46.969Z,91.56
2023-03-11T22:42:46.875Z,90.76
2023-03-11T22:47:46.820Z,90.87
2023-03-11T22:52:46.652Z,90.23
2023-03-11T22:57:46.590Z,89.92
2023-03-11T23:02:46.717Z,90.13
2023-03-11T23:07:46.476Z,89.61
2023-03-11T23:12:46.423Z,90.87
2023-03-11T23:17:46.407Z,91.18
2023-03-11T23:22:46.276Z,91.22
2023-03-11T23:27:46.227Z,92.13
2023-03-11T23:32:46.231Z,91.71
2023-03-11T23:37:46.085Z,92.38
2023-03-11T23:42:46.033Z,92.94
2023-03-11T23:47:46.030Z,94.51
2023-03-11T23:52:45.941Z,94.51
2023-03-11T23:57:45.903Z,94.20
